sensor_id;sensor_type;location;lat;lon;timestamp;temperature;humidity
3406;DHT22;10008;48.682;9.016;2023-07-02T00:00:07;16.70;99.90
3406;DHT22;10008;48.682;9.016;2023-07-02T00:02:37;16.60;99.90
3406;DHT22;10008;48.682;9.016;2023-07-02T00:05:04;16.70;99.90
3406;DHT22;10008;48.682;9.016;2023-07-02T00:07:29;16.60;99.90
3406;DHT22;10008;48.682;9.016;2023-07-02T00:09:55;16.60;99.90
3406;DHT22;10008;48.682;9.016;2023-07-02T00:12:21;16.60;99.90
3406;DHT22;10008;48.682;9.016;2023-07-02T00:14:46;16.60;99.90
3406;DHT22;10008;48.682;9.016;2023-07-02T00:17:12;16.60;99.90
3406;DHT22;10008;48.682;9.016;2023-07-02T00:19:39;16.50;99.90
3406;DHT22;10008;48.682;9.016;2023-07-02T00:22:08;16.50;99.90
3406;DHT22;10008;48.682;9.016;2023-07-02T00:24:35;16.40;99.90
3406;DHT22;10008;48.682;9.016;2023-07-02T00:27:00;16.40;99.90
3406;DHT22;10008;48.682;9.016;2023-07-02T00:29:26;16.40;99.90
3406;DHT22;10008;48.682;9.016;2023-07-02T00:31:52;16.40;99.90
3406;DHT22;10008;48.682;9.016;2023-07-02T00:34:19;16.40;99.90
3406;DHT22;10008;48.682;9.016;2023-07-02T00:36:45;16.40;99.90
3406;DHT22;10008;48.682;9.016;2023-07-02T00:39:11;16.50;99.90
3406;DHT22;10008;48.682;9.016;2023-07-02T00:41:37;16.50;99.90
3406;DHT22;10008;48.682;9.016;2023-07-02T00:44:04;16.60;99.90
3406;DHT22;10008;48.682;9.016;2023-07-02T00:46:30;16.60;99.90
3406;DHT22;10008;48.682;9.016;2023-07-02T00:48:56;16.70;99.90
3406;DHT22;10008;48.682;9.016;2023-07-02T00:51:26;16.70;99.90
3406;DHT22;10008;48.682;9.016;2023-07-02T00:53:54;16.60;99.90
3406;DHT22;10008;48.682;9.016;2023-07-02T00:56:24;16.70;99.90
3406;DHT22;10008;48.682;9.016;2023-07-02T00:58:55;16.70;99.90
3406;DHT22;10008;48.682;9.016;2023-07-02T01:01:25;16.70;99.90
3406;DHT22;10008;48.682;9.016;2023-07-02T01:04:04;16.70;99.90
3406;DHT22;10008;48.682;9.016;2023-07-02T01:06:32;16.80;99.90
3406;DHT22;10008;48.682;9.016;2023-07-02T01:09:00;16.70;99.90
3406;DHT22;10008;48.682;9.016;2023-07-02T01:14:10;16.60;99.90
3406;DHT22;10008;48.682;9.016;2023-07-02T01:16:37;16.60;99.90
3406;DHT22;10008;48.682;9.016;2023-07-02T01:19:21;16.50;99.90
3406;DHT22;10008;48.682;9.016;2023-07-02T01:21:49;15.00;99.90
3406;DHT22;10008;48.682;9.016;2023-07-02T01:24:16;16.40;99.90
3406;DHT22;10008;48.682;9.016;2023-07-02T01:26:43;16.40;99.90
3406;DHT22;10008;48.682;9.016;2023-07-02T01:29:20;16.40;99.90
3406;DHT22;10008;48.682;9.016;2023-07-02T01:31:46;16.40;99.90
3406;DHT22;10008;48.682;9.016;2023-07-02T01:34:13;16.30;99.90
3406;DHT22;10008;48.682;9.016;2023-07-02T01:36:39;16.30;99.90
3406;DHT22;10008;48.682;9.016;2023-07-02T01:39:05;16.30;99.90
3406;DHT22;10008;48.682;9.016;2023-07-02T01:42:08;16.20;99.90
3406;DHT22;10008;48.682;9.016;2023-07-02T01:44:35;16.20;99.90
3406;DHT22;10008;48.682;9.016;2023-07-02T01:47:01;16.10;99.90
3406;DHT22;10008;48.682;9.016;2023-07-02T01:49:26;16.00;99.90
3406;DHT22;10008;48.682;9.016;2023-07-02T01:51:53;16.00;99.90
3406;DHT22;10008;48.682;9.016;2023-07-02T01:54:21;15.90;99.90
3406;DHT22;10008;48.682;9.016;2023-07-02T01:56:47;15.90;99.90
3406;DHT22;10008;48.682;9.016;2023-07-02T01:59:13;15.90;99.90
3406;DHT22;10008;48.682;9.016;2023-07-02T02:01:38;15.90;99.90
3406;DHT22;10008;48.682;9.016;2023-07-02T02:04:07;15.90;99.90
3406;DHT22;10008;48.682;9.016;2023-07-02T02:06:33;15.90;99.90
3406;DHT22;10008;48.682;9.016;2023-07-02T02:09:00;15.90;99.90
3406;DHT22;10008;48.682;9.016;2023-07-02T02:11:26;16.00;99.90
3406;DHT22;10008;48.682;9.016;2023-07-02T02:13:51;16.00;99.90
3406;DHT22;10008;48.682;9.016;2023-07-02T02:16:17;16.10;99.90
3406;DHT22;10008;48.682;9.016;2023-07-02T02:18:43;16.10;99.90
3406;DHT22;10008;48.682;9.016;2023-07-02T02:21:09;16.10;99.90
3406;DHT22;10008;48.682;9.016;2023-07-02T02:23:35;16.10;99.90
3406;DHT22;10008;48.682;9.016;2023-07-02T02:26:00;16.10;99.90
3406;DHT22;10008;48.682;9.016;2023-07-02T02:28:26;16.20;99.90
3406;DHT22;10008;48.682;9.016;2023-07-02T02:30:52;16.20;99.90
3406;DHT22;10008;48.682;9.016;2023-07-02T02:33:18;16.30;99.90
3406;DHT22;10008;48.682;9.016;2023-07-02T02:35:44;16.30;99.90
3406;DHT22;10008;48.682;9.016;2023-07-02T02:38:11;16.30;99.90
3406;DHT22;10008;48.682;9.016;2023-07-02T02:40:37;16.30;99.90
3406;DHT22;10008;48.682;9.016;2023-07-02T02:43:06;16.40;99.90
3406;DHT22;10008;48.682;9.016;2023-07-02T02:45:32;16.30;99.90
3406;DHT22;10008;48.682;9.016;2023-07-02T02:47:58;16.40;99.90
3406;DHT22;10008;48.682;9.016;2023-07-02T02:50:24;16.40;99.90
3406;DHT22;10008;48.682;9.016;2023-07-02T02:52:50;16.40;99.90
3406;DHT22;10008;48.682;9.016;2023-07-02T02:55:15;16.40;99.90
3406;DHT22;10008;48.682;9.016;2023-07-02T02:57:41;16.50;99.90
3406;DHT22;10008;48.682;9.016;2023-07-02T03:00:08;16.50;99.90
3406;DHT22;10008;48.682;9.016;2023-07-02T03:02:35;16.50;99.90
3406;DHT22;10008;48.682;9.016;2023-07-02T03:05:01;16.40;99.90
3406;DHT22;10008;48.682;9.016;2023-07-02T03:07:28;16.40;99.90
3406;DHT22;10008;48.682;9.016;2023-07-02T03:09:54;16.30;99.90
3406;DHT22;10008;48.682;9.016;2023-07-02T03:12:21;16.00;99.90
3406;DHT22;10008;48.682;9.016;2023-07-02T03:14:47;15.90;99.90
3406;DHT22;10008;48.682;9.016;2023-07-02T03:17:17;15.70;99.90
3406;DHT22;10008;48.682;9.016;2023-07-02T03:19:43;15.60;99.90
3406;DHT22;10008;48.682;9.016;2023-07-02T03:22:08;15.50;99.90
3406;DHT22;10008;48.682;9.016;2023-07-02T03:24:34;15.30;99.90
3406;DHT22;10008;48.682;9.016;2023-07-02T03:27:00;15.20;99.90
3406;DHT22;10008;48.682;9.016;2023-07-02T03:29:26;15.00;99.90
3406;DHT22;10008;48.682;9.016;2023-07-02T03:31:52;15.00;99.90
3406;DHT22;10008;48.682;9.016;2023-07-02T03:34:18;14.90;99.90
3406;DHT22;10008;48.682;9.016;2023-07-02T03:36:44;14.80;99.90
3406;DHT22;10008;48.682;9.016;2023-07-02T03:39:10;14.90;99.90
3406;DHT22;10008;48.682;9.016;2023-07-02T03:41:35;14.90;99.90
3406;DHT22;10008;48.682;9.016;2023-07-02T03:44:01;14.80;99.90
3406;DHT22;10008;48.682;9.016;2023-07-02T03:46:27;14.80;99.90
3406;DHT22;10008;48.682;9.016;2023-07-02T03:48:53;14.70;99.90
3406;DHT22;10008;48.682;9.016;2023-07-02T03:51:18;14.60;99.90
3406;DHT22;10008;48.682;9.016;2023-07-02T03:53:44;14.60;99.90
3406;DHT22;10008;48.682;9.016;2023-07-02T03:56:10;14.50;99.90
3406;DHT22;10008;48.682;9.016;2023-07-02T03:58:35;14.60;99.90
3406;DHT22;10008;48.682;9.016;2023-07-02T04:01:01;14.60;99.90
3406;DHT22;10008;48.682;9.016;2023-07-02T04:03:27;14.60;99.90
3406;DHT22;10008;48.682;9.016;2023-07-02T04:05:52;14.50;99.90
3406;DHT22;10008;48.682;9.016;2023-07-02T04:08:18;14.60;99.90
3406;DHT22;10008;48.682;9.016;2023-07-02T04:10:46;14.70;99.90
3406;DHT22;10008;48.682;9.016;2023-07-02T04:13:12;14.70;99.90
3406;DHT22;10008;48.682;9.016;2023-07-02T04:15:38;14.80;99.90
3406;DHT22;10008;48.682;9.016;2023-07-02T04:18:04;14.70;99.90
3406;DHT22;10008;48.682;9.016;2023-07-02T04:20:30;14.70;99.90
3406;DHT22;10008;48.682;9.016;2023-07-02T04:22:56;14.80;99.90
3406;DHT22;10008;48.682;9.016;2023-07-02T04:25:21;14.80;99.90
3406;DHT22;10008;48.682;9.016;2023-07-02T04:27:47;14.70;99.90
3406;DHT22;10008;48.682;9.016;2023-07-02T04:30:13;14.70;99.90
3406;DHT22;10008;48.682;9.016;2023-07-02T04:32:40;14.60;99.90
3406;DHT22;10008;48.682;9.016;2023-07-02T04:35:09;14.70;99.90
3406;DHT22;10008;48.682;9.016;2023-07-02T04:37:36;14.70;99.90
3406;DHT22;10008;48.682;9.016;2023-07-02T04:40:02;14.80;99.90
3406;DHT22;10008;48.682;9.016;2023-07-02T04:42:42;14.90;99.90
3406;DHT22;10008;48.682;9.016;2023-07-02T04:45:12;15.10;99.90
3406;DHT22;10008;48.682;9.016;2023-07-02T04:47:42;15.10;99.90
3406;DHT22;10008;48.682;9.016;2023-07-02T04:50:09;15.10;99.90
3406;DHT22;10008;48.682;9.016;2023-07-02T04:52:35;15.10;99.90
3406;DHT22;10008;48.682;9.016;2023-07-02T04:55:03;15.10;99.90
3406;DHT22;10008;48.682;9.016;2023-07-02T04:57:28;15.10;99.90
3406;DHT22;10008;48.682;9.016;2023-07-02T04:59:54;15.20;99.90
3406;DHT22;10008;48.682;9.016;2023-07-02T05:02:20;15.20;99.90
3406;DHT22;10008;48.682;9.016;2023-07-02T05:04:46;15.20;99.90
3406;DHT22;10008;48.682;9.016;2023-07-02T05:07:11;15.20;99.90
3406;DHT22;10008;48.682;9.016;2023-07-02T05:09:37;15.10;99.90
3406;DHT22;10008;48.682;9.016;2023-07-02T05:12:03;15.10;99.90
3406;DHT22;10008;48.682;9.016;2023-07-02T05:14:29;15.20;99.90
3406;DHT22;10008;48.682;9.016;2023-07-02T05:16:54;15.20;99.90
3406;DHT22;10008;48.682;9.016;2023-07-02T05:19:20;15.20;99.90
3406;DHT22;10008;48.682;9.016;2023-07-02T05:21:46;15.20;99.90
3406;DHT22;10008;48.682;9.016;2023-07-02T05:24:12;15.10;99.90
3406;DHT22;10008;48.682;9.016;2023-07-02T05:26:37;15.10;99.90
3406;DHT22;10008;48.682;9.016;2023-07-02T05:29:04;15.20;99.90
3406;DHT22;10008;48.682;9.016;2023-07-02T05:31:31;15.10;99.90
3406;DHT22;10008;48.682;9.016;2023-07-02T05:33:56;15.10;99.90
3406;DHT22;10008;48.682;9.016;2023-07-02T05:36:22;15.20;99.90
3406;DHT22;10008;48.682;9.016;2023-07-02T05:38:48;15.30;99.90
3406;DHT22;10008;48.682;9.016;2023-07-02T05:41:20;15.30;99.90
3406;DHT22;10008;48.682;9.016;2023-07-02T05:43:46;15.40;99.90
3406;DHT22;10008;48.682;9.016;2023-07-02T05:46:12;15.50;99.90
3406;DHT22;10008;48.682;9.016;2023-07-02T05:48:40;15.50;99.90
3406;DHT22;10008;48.682;9.016;2023-07-02T05:51:05;15.60;99.90
3406;DHT22;10008;48.682;9.016;2023-07-02T05:53:31;15.70;99.90
3406;DHT22;10008;48.682;9.016;2023-07-02T05:55:57;15.80;99.90
3406;DHT22;10008;48.682;9.016;2023-07-02T05:58:23;15.80;99.90
3406;DHT22;10008;48.682;9.016;2023-07-02T06:00:48;15.80;99.90
3406;DHT22;10008;48.682;9.016;2023-07-02T06:03:16;16.00;99.90
3406;DHT22;10008;48.682;9.016;2023-07-02T06:05:48;16.00;99.90
3406;DHT22;10008;48.682;9.016;2023-07-02T06:08:17;16.20;99.90
3406;DHT22;10008;48.682;9.016;2023-07-02T06:10:47;16.30;99.90
3406;DHT22;10008;48.682;9.016;2023-07-02T06:13:13;16.80;99.90
3406;DHT22;10008;48.682;9.016;2023-07-02T06:15:39;16.70;99.90
3406;DHT22;10008;48.682;9.016;2023-07-02T06:18:05;17.30;99.90
3406;DHT22;10008;48.682;9.016;2023-07-02T06:20:31;17.60;99.90
3406;DHT22;10008;48.682;9.016;2023-07-02T06:22:57;17.80;99.90
3406;DHT22;10008;48.682;9.016;2023-07-02T06:25:22;17.90;99.90
3406;DHT22;10008;48.682;9.016;2023-07-02T06:27:48;17.80;99.90
3406;DHT22;10008;48.682;9.016;2023-07-02T06:30:14;17.90;99.90
3406;DHT22;10008;48.682;9.016;2023-07-02T06:32:40;18.30;99.90
3406;DHT22;10008;48.682;9.016;2023-07-02T06:35:06;18.60;99.90
3406;DHT22;10008;48.682;9.016;2023-07-02T06:37:32;18.40;99.90
3406;DHT22;10008;48.682;9.016;2023-07-02T06:39:58;18.10;99.90
3406;DHT22;10008;48.682;9.016;2023-07-02T06:42:25;17.90;99.90
3406;DHT22;10008;48.682;9.016;2023-07-02T06:44:51;17.90;99.90
3406;DHT22;10008;48.682;9.016;2023-07-02T06:47:16;17.90;99.90
3406;DHT22;10008;48.682;9.016;2023-07-02T06:49:42;17.80;99.90
3406;DHT22;10008;48.682;9.016;2023-07-02T06:52:08;18.30;99.90
3406;DHT22;10008;48.682;9.016;2023-07-02T06:54:34;18.30;99.90
3406;DHT22;10008;48.682;9.016;2023-07-02T06:57:00;18.40;99.90
3406;DHT22;10008;48.682;9.016;2023-07-02T06:59:26;18.50;99.90
3406;DHT22;10008;48.682;9.016;2023-07-02T07:01:52;19.30;99.90
3406;DHT22;10008;48.682;9.016;2023-07-02T07:04:17;20.20;99.90
3406;DHT22;10008;48.682;9.016;2023-07-02T07:06:43;21.20;99.90
3406;DHT22;10008;48.682;9.016;2023-07-02T07:09:09;21.20;99.90
3406;DHT22;10008;48.682;9.016;2023-07-02T07:11:35;20.60;99.90
3406;DHT22;10008;48.682;9.016;2023-07-02T07:14:01;21.20;99.90
3406;DHT22;10008;48.682;9.016;2023-07-02T07:16:27;22.20;99.90
3406;DHT22;10008;48.682;9.016;2023-07-02T07:18:53;22.40;99.90
3406;DHT22;10008;48.682;9.016;2023-07-02T07:21:18;23.00;99.70
3406;DHT22;10008;48.682;9.016;2023-07-02T07:23:45;22.50;99.80
3406;DHT22;10008;48.682;9.016;2023-07-02T07:26:11;22.60;98.70
3406;DHT22;10008;48.682;9.016;2023-07-02T07:28:36;23.40;98.10
3406;DHT22;10008;48.682;9.016;2023-07-02T07:31:02;23.30;96.50
3406;DHT22;10008;48.682;9.016;2023-07-02T07:33:28;22.60;97.40
3406;DHT22;10008;48.682;9.016;2023-07-02T07:35:54;22.10;97.70
3406;DHT22;10008;48.682;9.016;2023-07-02T07:38:19;22.50;98.40
3406;DHT22;10008;48.682;9.016;2023-07-02T07:40:45;22.10;98.60
3406;DHT22;10008;48.682;9.016;2023-07-02T07:43:11;21.70;98.00
3406;DHT22;10008;48.682;9.016;2023-07-02T07:45:37;21.50;98.40
3406;DHT22;10008;48.682;9.016;2023-07-02T07:48:05;21.20;98.10
3406;DHT22;10008;48.682;9.016;2023-07-02T07:50:31;21.40;98.60
3406;DHT22;10008;48.682;9.016;2023-07-02T07:52:57;22.20;98.50
3406;DHT22;10008;48.682;9.016;2023-07-02T07:55:23;22.40;97.60
3406;DHT22;10008;48.682;9.016;2023-07-02T07:57:49;22.40;97.50
3406;DHT22;10008;48.682;9.016;2023-07-02T08:00:15;22.50;97.00
3406;DHT22;10008;48.682;9.016;2023-07-02T08:02:45;22.50;97.50
3406;DHT22;10008;48.682;9.016;2023-07-02T08:05:12;22.50;95.20
3406;DHT22;10008;48.682;9.016;2023-07-02T08:07:39;23.10;94.90
3406;DHT22;10008;48.682;9.016;2023-07-02T08:10:06;22.90;93.90
3406;DHT22;10008;48.682;9.016;2023-07-02T08:12:33;22.70;95.80
3406;DHT22;10008;48.682;9.016;2023-07-02T08:14:59;22.70;96.30
3406;DHT22;10008;48.682;9.016;2023-07-02T08:17:25;21.70;96.40
3406;DHT22;10008;48.682;9.016;2023-07-02T08:19:50;22.20;97.10
3406;DHT22;10008;48.682;9.016;2023-07-02T08:22:16;22.20;95.80
3406;DHT22;10008;48.682;9.016;2023-07-02T08:24:42;22.50;95.70
3406;DHT22;10008;48.682;9.016;2023-07-02T08:27:08;23.00;95.70
3406;DHT22;10008;48.682;9.016;2023-07-02T08:29:35;23.20;94.10
3406;DHT22;10008;48.682;9.016;2023-07-02T08:32:01;22.60;94.90
3406;DHT22;10008;48.682;9.016;2023-07-02T08:34:27;22.50;95.10
3406;DHT22;10008;48.682;9.016;2023-07-02T08:36:53;22.90;94.10
3406;DHT22;10008;48.682;9.016;2023-07-02T08:39:19;23.10;93.60
3406;DHT22;10008;48.682;9.016;2023-07-02T08:41:47;22.90;94.30
3406;DHT22;10008;48.682;9.016;2023-07-02T08:44:13;22.60;93.30
3406;DHT22;10008;48.682;9.016;2023-07-02T08:46:40;22.20;94.00
3406;DHT22;10008;48.682;9.016;2023-07-02T08:49:07;22.10;93.90
3406;DHT22;10008;48.682;9.016;2023-07-02T08:51:33;22.30;95.20
3406;DHT22;10008;48.682;9.016;2023-07-02T08:53:59;23.10;93.90
3406;DHT22;10008;48.682;9.016;2023-07-02T08:56:25;24.10;92.30
3406;DHT22;10008;48.682;9.016;2023-07-02T08:58:52;24.90;90.20
3406;DHT22;10008;48.682;9.016;2023-07-02T09:01:18;25.50;88.50
3406;DHT22;10008;48.682;9.016;2023-07-02T09:03:44;26.10;88.90
3406;DHT22;10008;48.682;9.016;2023-07-02T09:06:11;25.80;85.70
3406;DHT22;10008;48.682;9.016;2023-07-02T09:08:37;25.50;86.30
3406;DHT22;10008;48.682;9.016;2023-07-02T09:11:08;24.70;87.10
3406;DHT22;10008;48.682;9.016;2023-07-02T09:13:49;24.00;90.00
3406;DHT22;10008;48.682;9.016;2023-07-02T09:16:29;24.00;90.30
3406;DHT22;10008;48.682;9.016;2023-07-02T09:27:00;24.20;90.90
3406;DHT22;10008;48.682;9.016;2023-07-02T09:29:31;25.10;90.70
3406;DHT22;10008;48.682;9.016;2023-07-02T09:31:59;24.60;88.20
3406;DHT22;10008;48.682;9.016;2023-07-02T09:34:30;24.90;88.40
3406;DHT22;10008;48.682;9.016;2023-07-02T09:36:57;25.00;87.90
3406;DHT22;10008;48.682;9.016;2023-07-02T09:39:31;24.40;87.80
3406;DHT22;10008;48.682;9.016;2023-07-02T09:41:59;23.50;90.40
3406;DHT22;10008;48.682;9.016;2023-07-02T09:44:32;23.60;90.50
3406;DHT22;10008;48.682;9.016;2023-07-02T09:47:02;23.40;91.10
3406;DHT22;10008;48.682;9.016;2023-07-02T09:49:34;23.00;92.10
3406;DHT22;10008;48.682;9.016;2023-07-02T09:52:02;23.00;91.80
3406;DHT22;10008;48.682;9.016;2023-07-02T09:54:29;22.50;92.50
3406;DHT22;10008;48.682;9.016;2023-07-02T09:56:56;21.80;94.30
3406;DHT22;10008;48.682;9.016;2023-07-02T09:59:22;21.70;92.90
3406;DHT22;10008;48.682;9.016;2023-07-02T10:01:49;22.80;93.10
3406;DHT22;10008;48.682;9.016;2023-07-02T10:04:17;23.70;91.90
3406;DHT22;10008;48.682;9.016;2023-07-02T10:06:54;24.40;89.40
3406;DHT22;10008;48.682;9.016;2023-07-02T10:09:43;24.10;87.40
3406;DHT22;10008;48.682;9.016;2023-07-02T10:14:43;25.00;82.80
3406;DHT22;10008;48.682;9.016;2023-07-02T10:17:09;24.90;85.30
3406;DHT22;10008;48.682;9.016;2023-07-02T10:19:35;24.90;83.70
3406;DHT22;10008;48.682;9.016;2023-07-02T10:22:02;24.80;83.50
3406;DHT22;10008;48.682;9.016;2023-07-02T10:24:28;24.60;84.80
3406;DHT22;10008;48.682;9.016;2023-07-02T10:27:01;24.60;85.60
3406;DHT22;10008;48.682;9.016;2023-07-02T10:29:29;24.40;85.30
3406;DHT22;10008;48.682;9.016;2023-07-02T10:31:56;24.80;86.00
3406;DHT22;10008;48.682;9.016;2023-07-02T10:34:33;24.00;84.20
3406;DHT22;10008;48.682;9.016;2023-07-02T10:37:03;24.50;85.20
3406;DHT22;10008;48.682;9.016;2023-07-02T10:39:30;25.10;83.10
3406;DHT22;10008;48.682;9.016;2023-07-02T10:42:07;25.40;83.00
3406;DHT22;10008;48.682;9.016;2023-07-02T10:44:34;25.40;83.60
3406;DHT22;10008;48.682;9.016;2023-07-02T10:47:00;25.50;78.20
3406;DHT22;10008;48.682;9.016;2023-07-02T10:49:32;25.10;78.00
3406;DHT22;10008;48.682;9.016;2023-07-02T10:52:02;25.40;76.80
3406;DHT22;10008;48.682;9.016;2023-07-02T10:57:08;26.00;73.00
3406;DHT22;10008;48.682;9.016;2023-07-02T10:59:34;26.10;76.80
3406;DHT22;10008;48.682;9.016;2023-07-02T11:02:00;25.50;74.40
3406;DHT22;10008;48.682;9.016;2023-07-02T11:04:32;25.30;76.40
3406;DHT22;10008;48.682;9.016;2023-07-02T11:06:59;26.20;77.00
3406;DHT22;10008;48.682;9.016;2023-07-02T11:09:25;27.40;76.90
3406;DHT22;10008;48.682;9.016;2023-07-02T11:11:58;27.50;71.70
3406;DHT22;10008;48.682;9.016;2023-07-02T11:14:31;27.30;69.90
3406;DHT22;10008;48.682;9.016;2023-07-02T11:16:58;27.10;68.70
3406;DHT22;10008;48.682;9.016;2023-07-02T11:19:24;26.40;70.30
3406;DHT22;10008;48.682;9.016;2023-07-02T11:21:52;26.20;72.20
3406;DHT22;10008;48.682;9.016;2023-07-02T11:24:27;26.10;70.90
3406;DHT22;10008;48.682;9.016;2023-07-02T11:26:54;26.40;72.10
3406;DHT22;10008;48.682;9.016;2023-07-02T11:29:20;26.40;72.70
3406;DHT22;10008;48.682;9.016;2023-07-02T11:31:46;26.90;70.70
3406;DHT22;10008;48.682;9.016;2023-07-02T11:34:17;27.20;71.60
3406;DHT22;10008;48.682;9.016;2023-07-02T11:36:43;27.50;68.10
3406;DHT22;10008;48.682;9.016;2023-07-02T11:39:09;27.20;67.40
3406;DHT22;10008;48.682;9.016;2023-07-02T11:41:41;27.40;72.30
3406;DHT22;10008;48.682;9.016;2023-07-02T11:44:08;27.50;68.70
3406;DHT22;10008;48.682;9.016;2023-07-02T11:46:34;27.80;67.00
3406;DHT22;10008;48.682;9.016;2023-07-02T11:49:01;27.70;63.00
3406;DHT22;10008;48.682;9.016;2023-07-02T11:51:27;27.40;68.30
3406;DHT22;10008;48.682;9.016;2023-07-02T11:53:53;27.10;64.20
3406;DHT22;10008;48.682;9.016;2023-07-02T11:56:19;27.40;64.50
3406;DHT22;10008;48.682;9.016;2023-07-02T11:58:44;27.90;66.00
3406;DHT22;10008;48.682;9.016;2023-07-02T12:01:10;28.30;64.90
3406;DHT22;10008;48.682;9.016;2023-07-02T12:03:36;28.40;61.60
3406;DHT22;10008;48.682;9.016;2023-07-02T12:06:02;28.90;68.50
3406;DHT22;10008;48.682;9.016;2023-07-02T12:08:27;28.60;61.60
3406;DHT22;10008;48.682;9.016;2023-07-02T12:10:53;28.00;62.50
3406;DHT22;10008;48.682;9.016;2023-07-02T12:13:19;27.30;63.00
3406;DHT22;10008;48.682;9.016;2023-07-02T12:15:47;27.00;64.20
3406;DHT22;10008;48.682;9.016;2023-07-02T12:18:13;27.00;68.10
3406;DHT22;10008;48.682;9.016;2023-07-02T12:20:40;27.80;68.30
3406;DHT22;10008;48.682;9.016;2023-07-02T12:23:05;28.30;61.40
3406;DHT22;10008;48.682;9.016;2023-07-02T12:25:31;28.60;59.80
3406;DHT22;10008;48.682;9.016;2023-07-02T12:27:57;28.90;60.30
3406;DHT22;10008;48.682;9.016;2023-07-02T12:30:23;28.50;60.90
3406;DHT22;10008;48.682;9.016;2023-07-02T12:32:48;28.20;62.90
3406;DHT22;10008;48.682;9.016;2023-07-02T12:35:14;28.20;63.90
3406;DHT22;10008;48.682;9.016;2023-07-02T12:37:44;28.10;61.10
3406;DHT22;10008;48.682;9.016;2023-07-02T12:40:11;28.20;62.60
3406;DHT22;10008;48.682;9.016;2023-07-02T12:42:37;28.30;61.60
3406;DHT22;10008;48.682;9.016;2023-07-02T12:45:05;28.50;57.90
3406;DHT22;10008;48.682;9.016;2023-07-02T12:47:30;28.50;58.80
3406;DHT22;10008;48.682;9.016;2023-07-02T12:49:56;28.30;55.50
3406;DHT22;10008;48.682;9.016;2023-07-02T12:52:22;28.50;56.40
3406;DHT22;10008;48.682;9.016;2023-07-02T12:54:48;28.80;58.10
3406;DHT22;10008;48.682;9.016;2023-07-02T12:57:13;28.80;57.10
3406;DHT22;10008;48.682;9.016;2023-07-02T12:59:39;28.00;58.40
3406;DHT22;10008;48.682;9.016;2023-07-02T13:02:05;27.90;60.00
3406;DHT22;10008;48.682;9.016;2023-07-02T13:04:31;27.80;58.00
3406;DHT22;10008;48.682;9.016;2023-07-02T13:06:57;29.70;61.80
3406;DHT22;10008;48.682;9.016;2023-07-02T13:09:22;27.60;59.80
3406;DHT22;10008;48.682;9.016;2023-07-02T13:11:48;28.00;59.40
3406;DHT22;10008;48.682;9.016;2023-07-02T13:14:14;28.10;56.60
3406;DHT22;10008;48.682;9.016;2023-07-02T13:16:40;27.90;55.50
3406;DHT22;10008;48.682;9.016;2023-07-02T13:19:05;27.80;58.50
3406;DHT22;10008;48.682;9.016;2023-07-02T13:21:31;27.40;56.80
3406;DHT22;10008;48.682;9.016;2023-07-02T13:23:57;27.80;61.20
3406;DHT22;10008;48.682;9.016;2023-07-02T13:26:23;27.90;59.50
3406;DHT22;10008;48.682;9.016;2023-07-02T13:28:48;27.60;59.40
3406;DHT22;10008;48.682;9.016;2023-07-02T13:31:15;27.20;60.10
3406;DHT22;10008;48.682;9.016;2023-07-02T13:33:42;26.70;59.50
3406;DHT22;10008;48.682;9.016;2023-07-02T13:36:08;26.60;60.60
3406;DHT22;10008;48.682;9.016;2023-07-02T13:38:33;26.70;61.40
3406;DHT22;10008;48.682;9.016;2023-07-02T13:40:59;26.80;57.90
3406;DHT22;10008;48.682;9.016;2023-07-02T13:43:26;27.10;57.40
3406;DHT22;10008;48.682;9.016;2023-07-02T13:45:52;27.20;59.90
3406;DHT22;10008;48.682;9.016;2023-07-02T13:48:17;26.50;61.00
3406;DHT22;10008;48.682;9.016;2023-07-02T13:50:43;26.40;61.20
3406;DHT22;10008;48.682;9.016;2023-07-02T13:53:09;26.50;62.10
3406;DHT22;10008;48.682;9.016;2023-07-02T13:55:35;26.60;59.50
3406;DHT22;10008;48.682;9.016;2023-07-02T13:58:00;26.90;61.40
3406;DHT22;10008;48.682;9.016;2023-07-02T14:00:27;26.30;59.60
3406;DHT22;10008;48.682;9.016;2023-07-02T14:02:53;26.00;62.30
3406;DHT22;10008;48.682;9.016;2023-07-02T14:05:19;25.70;62.10
3406;DHT22;10008;48.682;9.016;2023-07-02T14:07:45;25.60;62.70
3406;DHT22;10008;48.682;9.016;2023-07-02T14:10:11;25.70;66.10
3406;DHT22;10008;48.682;9.016;2023-07-02T14:12:38;26.10;65.00
3406;DHT22;10008;48.682;9.016;2023-07-02T14:15:05;25.80;63.00
3406;DHT22;10008;48.682;9.016;2023-07-02T14:17:31;25.90;63.80
3406;DHT22;10008;48.682;9.016;2023-07-02T14:19:56;25.80;64.80
3406;DHT22;10008;48.682;9.016;2023-07-02T14:22:22;25.60;64.60
3406;DHT22;10008;48.682;9.016;2023-07-02T14:24:48;25.20;67.20
3406;DHT22;10008;48.682;9.016;2023-07-02T14:27:14;25.00;67.70
3406;DHT22;10008;48.682;9.016;2023-07-02T14:29:40;24.90;68.40
3406;DHT22;10008;48.682;9.016;2023-07-02T14:32:06;25.00;69.70
3406;DHT22;10008;48.682;9.016;2023-07-02T14:34:32;25.10;66.80
3406;DHT22;10008;48.682;9.016;2023-07-02T14:36:58;25.20;67.20
3406;DHT22;10008;48.682;9.016;2023-07-02T14:39:24;25.10;67.50
3406;DHT22;10008;48.682;9.016;2023-07-02T14:41:50;25.10;70.20
3406;DHT22;10008;48.682;9.016;2023-07-02T14:44:16;25.10;67.90
3406;DHT22;10008;48.682;9.016;2023-07-02T14:46:43;24.80;70.60
3406;DHT22;10008;48.682;9.016;2023-07-02T14:49:09;24.90;69.50
3406;DHT22;10008;48.682;9.016;2023-07-02T14:51:34;25.10;64.90
3406;DHT22;10008;48.682;9.016;2023-07-02T14:54:01;25.10;66.70
3406;DHT22;10008;48.682;9.016;2023-07-02T14:56:29;24.80;69.40
3406;DHT22;10008;48.682;9.016;2023-07-02T14:58:56;24.70;67.20
3406;DHT22;10008;48.682;9.016;2023-07-02T15:01:21;25.00;68.60
3406;DHT22;10008;48.682;9.016;2023-07-02T15:03:47;25.40;64.70
3406;DHT22;10008;48.682;9.016;2023-07-02T15:06:15;25.40;64.30
3406;DHT22;10008;48.682;9.016;2023-07-02T15:08:42;25.40;65.60
3406;DHT22;10008;48.682;9.016;2023-07-02T15:11:08;25.40;64.90
3406;DHT22;10008;48.682;9.016;2023-07-02T15:13:35;25.30;68.80
3406;DHT22;10008;48.682;9.016;2023-07-02T15:16:00;24.90;69.00
3406;DHT22;10008;48.682;9.016;2023-07-02T15:18:27;24.80;70.40
3406;DHT22;10008;48.682;9.016;2023-07-02T15:20:53;24.80;70.60
3406;DHT22;10008;48.682;9.016;2023-07-02T15:23:19;24.70;67.20
3406;DHT22;10008;48.682;9.016;2023-07-02T15:25:53;24.70;67.00
3406;DHT22;10008;48.682;9.016;2023-07-02T15:28:19;24.70;71.50
3406;DHT22;10008;48.682;9.016;2023-07-02T15:30:47;24.50;71.80
3406;DHT22;10008;48.682;9.016;2023-07-02T15:33:13;24.50;69.60
3406;DHT22;10008;48.682;9.016;2023-07-02T15:35:39;24.50;68.90
3406;DHT22;10008;48.682;9.016;2023-07-02T15:38:05;24.40;71.40
3406;DHT22;10008;48.682;9.016;2023-07-02T15:40:31;24.00;73.60
3406;DHT22;10008;48.682;9.016;2023-07-02T15:42:56;23.70;73.10
3406;DHT22;10008;48.682;9.016;2023-07-02T15:45:22;23.50;73.20
3406;DHT22;10008;48.682;9.016;2023-07-02T15:47:49;23.20;73.50
3406;DHT22;10008;48.682;9.016;2023-07-02T15:50:14;23.10;73.20
3406;DHT22;10008;48.682;9.016;2023-07-02T15:52:40;23.30;77.40
3406;DHT22;10008;48.682;9.016;2023-07-02T15:55:06;23.40;74.20
3406;DHT22;10008;48.682;9.016;2023-07-02T15:57:32;23.40;74.30